KGAO

South Lafourche Leonard Miller Jr Airport

Galliano, Louisiana, USA
METAR KGAO 191115Z AUTO 10006KT 10SM BKN100 14/09 A2996 RMK AO2 T01430087
Observed Flight Rules
Dec-19 @ 11:15 UTC (23 minutes ago) Visual Flight Rules
Wind Visibility Clouds
100° at 6 knots 10 miles
  • Broken at 10,000' AGL
Temperatures Readings
Current 14°C / 57°F
Dewpoint 9°C / 48°F
Humidity 72%
Altimeter 29.96" Hg
Pressure 1015 hPa
Elevation 1
METAR KGAO 191115Z AUTO 10006KT 10SM BKN100 14/09 A2996 RMK AO2 T01430087
Observed Flight Rules
Dec-19 @ 11:15 UTC
(23 minutes ago)
VFR
Wind Visibility
100° at 6 knots 10 miles
Clouds
  • Broken at 10,000' AGL
Temperature Dewpoint
14°C / 57°F 9°C / 48°F
Humidity Altimeter Pressure
72% 29.96" Hg 1015 hPa